Time;durP1;ratioP1;P1;durP2;ratioP2;P2;SDS_P1;SDS_P2;PMS_P1;PMS_P2;Temp;Humidity;BMP_temperature;BMP_pressure;BME280_temperature;BME280_humidity;BME280_pressure;Samples;Min_cycle;Max_cycle;Signal;HPM_P1;HPM_P2
2023/01/13 05:32:18;;;;;;;8.90;1.90;;;10.70;78.60;;;;;;5025795;23;20626;-76
2023/01/13 05:34:43;;;;;;;;;;;10.70;78.80;;;;;;4887719;29;20033;-79
2023/01/13 05:37:10;;;;;;;12.68;2.00;;;10.70;78.90;;;;;;4882598;29;20645;-76
2023/01/13 05:45:05;;;;;;;6.38;2.03;;;10.60;78.90;;;;;;4886292;29;20088;-76
2023/01/13 05:47:31;;;;;;;6.82;2.03;;;10.60;78.80;;;;;;4903289;29;20033;-74
2023/01/13 05:49:56;;;;;;;6.55;1.80;;;10.60;78.60;;;;;;4893118;29;20022;-74
2023/01/13 05:52:22;;;;;;;14.73;3.00;;;10.60;78.70;;;;;;4884613;29;20055;-75
2023/01/13 05:55:03;;;;;;;;;;;;;;;;;;;;;
2023/01/13 05:57:29;;;;;;;11.05;1.80;;;10.60;78.50;;;;;;4899583;29;20033;-74
2023/01/13 05:59:54;;;;;;;4.22;1.60;;;10.60;78.20;;;;;;4867760;29;20080;-76
2023/01/13 06:02:20;;;;;;;10.32;1.67;;;10.60;78.10;;;;;;4898887;29;20033;-76
2023/01/13 06:04:46;;;;;;;9.63;1.58;;;10.60;78.00;;;;;;4894485;29;20028;-74
2023/01/13 06:07:11;;;;;;;4.80;1.27;;;10.60;78.10;;;;;;4907199;29;20059;-74
2023/01/13 06:09:37;;;;;;;5.72;1.38;;;10.60;78.00;;;;;;4898073;29;20056;-74
2023/01/13 06:12:20;;;;;;;5.47;1.55;;;10.50;78.10;;;;;;4900974;29;20479;-74
2023/01/13 06:14:46;;;;;;;6.22;1.80;;;10.50;78.00;;;;;;4871005;29;20033;-74
2023/01/13 06:17:14;;;;;;;5.78;2.40;;;10.50;78.10;;;;;;4902940;29;20033;-74
2023/01/13 06:19:41;;;;;;;6.00;1.85;;;10.50;78.20;;;;;;4902712;29;20032;-74
2023/01/13 06:22:20;;;;;;;7.57;2.03;;;10.50;78.00;;;;;;4901333;29;20052;-80
2023/01/13 06:24:48;;;;;;;6.73;1.77;;;10.50;77.60;;;;;;4902667;29;20322;-75
2023/01/13 06:27:16;;;;;;;7.07;1.88;;;10.50;77.90;;;;;;4902983;29;20031;-74
2023/01/13 06:29:42;;;;;;;8.77;3.40;;;10.40;77.80;;;;;;4899098;29;20086;-76
2023/01/13 06:32:15;;;;;;;11.90;4.18;;;10.40;77.80;;;;;;4884212;29;20478;-79
2023/01/13 06:34:45;;;;;;;11.60;2.78;;;10.40;77.80;;;;;;4897414;29;20574;-75
2023/01/13 06:37:13;;;;;;;9.88;2.83;;;10.40;77.80;;;;;;4894660;29;20112;-74
2023/01/13 06:39:39;;;;;;;9.65;2.35;;;10.40;77.80;;;;;;4900109;29;20072;-74
2023/01/13 06:44:50;;;;;;;15.13;3.65;;;10.30;77.70;;;;;;4883951;29;20036;-75
2023/01/13 06:47:16;;;;;;;8.77;2.45;;;10.30;77.90;;;;;;4883514;29;20477;-75
2023/01/13 06:49:42;;;;;;;9.07;2.38;;;10.30;77.80;;;;;;4883640;29;20029;-76
2023/01/13 06:52:10;;;;;;;16.42;2.40;;;10.20;77.90;;;;;;4895094;29;20036;-78
2023/01/13 06:54:36;;;;;;;7.13;2.33;;;10.20;77.90;;;;;;4900556;29;20476;-79
2023/01/13 06:57:01;;;;;;;6.95;2.10;;;10.20;78.00;;;;;;4902576;29;20032;-79
2023/01/13 06:59:27;;;;;;;6.63;2.28;;;10.20;77.90;;;;;;4899583;29;20838;-74
2023/01/13 07:01:53;;;;;;;6.30;2.53;;;10.30;78.00;;;;;;4902061;29;20060;-75
2023/01/13 07:04:18;;;;;;;6.32;1.83;;;10.30;77.70;;;;;;4896939;29;20043;-74
2023/01/13 07:06:44;;;;;;;7.82;1.60;;;10.30;78.00;;;;;;4899427;29;20376;-75
2023/01/13 07:09:12;;;;;;;7.82;2.13;;;10.30;77.60;;;;;;4895196;29;20562;-74
2023/01/13 07:11:38;;;;;;;12.07;1.85;;;10.20;77.80;;;;;;4891164;29;20068;-75
2023/01/13 07:16:48;;;;;;;7.45;2.50;;;10.20;77.60;;;;;;4891141;29;20039;-74
2023/01/13 07:19:14;;;;;;;6.35;1.55;;;10.20;77.70;;;;;;4874757;29;20033;-75
2023/01/13 07:21:40;;;;;;;7.25;2.10;;;10.10;77.50;;;;;;4898211;29;20025;-75
2023/01/13 07:24:06;;;;;;;7.82;3.33;;;10.00;77.50;;;;;;4880010;29;20057;-75
2023/01/13 07:26:34;;;;;;;15.05;5.10;;;10.00;77.60;;;;;;4901644;29;20024;-74
2023/01/13 07:28:59;;;;;;;12.90;3.60;;;10.10;77.80;;;;;;4897721;29;20028;-75
2023/01/13 07:31:25;;;;;;;10.75;3.38;;;10.10;77.70;;;;;;4900748;29;20063;-75
2023/01/13 07:33:51;;;;;;;9.30;2.15;;;10.00;77.30;;;;;;4900016;29;20029;-75
2023/01/13 07:36:17;;;;;;;11.07;2.42;;;10.00;77.50;;;;;;4884693;29;20522;-75
2023/01/13 07:38:43;;;;;;;7.40;1.90;;;10.00;77.50;;;;;;4901167;29;20024;-75
2023/01/13 07:43:59;;;;;;;11.10;2.00;;;10.00;77.40;;;;;;4896896;29;20091;-75
2023/01/13 07:46:25;;;;;;;9.90;1.60;;;10.00;77.30;;;;;;4900105;29;20479;-74
2023/01/13 07:48:51;;;;;;;5.32;1.25;;;10.00;77.50;;;;;;4878490;29;20033;-74
2023/01/13 07:51:19;;;;;;;9.13;1.88;;;10.00;77.60;;;;;;4880224;29;20043;-75
2023/01/13 07:53:45;;;;;;;12.55;1.67;;;10.00;77.60;;;;;;4900791;29;20040;-74
2023/01/13 07:56:11;;;;;;;10.10;2.08;;;10.00;77.60;;;;;;4896991;29;20024;-74
2023/01/13 07:58:37;;;;;;;7.97;1.80;;;10.00;77.80;;;;;;4901014;29;20037;-75
2023/01/13 08:01:11;;;;;;;5.60;2.55;;;10.00;77.70;;;;;;4900728;29;20032;-75
2023/01/13 08:03:37;;;;;;;6.25;1.85;;;10.10;77.60;;;;;;4897409;29;20147;-75
2023/01/13 08:06:04;;;;;;;11.70;2.28;;;10.10;77.70;;;;;;4883563;29;20114;-75
2023/01/13 08:08:30;;;;;;;18.95;3.35;;;10.10;77.80;;;;;;4900654;29;20032;-75
2023/01/13 08:11:00;;;;;;;11.95;2.70;;;10.20;77.70;;;;;;4884831;29;20024;-75
2023/01/13 08:13:26;;;;;;;8.88;2.05;;;10.20;77.70;;;;;;4900329;29;20052;-75
2023/01/13 08:15:58;;;;;;;9.27;1.75;;;10.30;77.70;;;;;;4900126;29;20040;-75
2023/01/13 08:18:23;;;;;;;10.25;1.95;;;10.30;77.40;;;;;;4897842;29;20029;-75
2023/01/13 08:20:51;;;;;;;9.77;2.45;;;10.30;77.30;;;;;;4892472;29;20037;-75
2023/01/13 08:23:17;;;;;;;10.43;2.22;;;10.40;77.40;;;;;;4891407;29;20539;-75
2023/01/13 08:25:44;;;;;;;7.38;2.08;;;10.50;77.00;;;;;;4883491;29;20070;-75
2023/01/13 08:28:10;;;;;;;8.52;1.85;;;10.50;76.60;;;;;;4899987;29;20075;-74
2023/01/13 08:30:36;;;;;;;14.90;2.83;;;10.50;76.70;;;;;;4893061;29;20120;-75
2023/01/13 08:33:06;;;;;;;7.40;2.47;;;10.60;76.40;;;;;;4891031;29;20059;-75
2023/01/13 08:35:32;;;;;;;;;;;10.60;76.50;;;;;;4900734;29;20045;-75
2023/01/13 08:37:58;;;;;;;9.10;1.80;;;10.60;76.40;;;;;;4898330;29;19990;-75
2023/01/13 08:40:23;;;;;;;14.68;2.78;;;10.50;76.40;;;;;;4886994;29;20567;-74
2023/01/13 08:42:49;;;;;;;7.35;2.28;;;10.50;76.40;;;;;;4900368;29;20444;-74
2023/01/13 08:45:15;;;;;;;13.90;2.00;;;10.50;76.10;;;;;;4881940;29;20035;-75
2023/01/13 08:47:41;;;;;;;8.20;2.25;;;10.50;76.10;;;;;;4882352;29;20025;-75
2023/01/13 08:50:07;;;;;;;11.90;2.17;;;10.50;75.80;;;;;;4882232;29;20029;-75
2023/01/13 08:52:33;;;;;;;5.63;1.73;;;10.50;76.20;;;;;;4896166;29;20429;-73
2023/01/13 08:54:59;;;;;;;9.55;2.40;;;10.60;76.00;;;;;;4882313;29;20041;-74
2023/01/13 08:57:24;;;;;;;15.05;2.90;;;10.60;76.00;;;;;;4900028;29;20037;-77
2023/01/13 08:59:50;;;;;;;13.20;2.22;;;10.70;75.90;;;;;;4897484;29;20032;-75
2023/01/13 09:02:18;;;;;;;12.23;2.60;;;10.80;75.70;;;;;;4899593;29;20041;-74
2023/01/13 09:04:44;;;;;;;9.00;2.67;;;10.80;75.40;;;;;;4869456;29;20043;-74
2023/01/13 09:07:10;;;;;;;6.05;3.03;;;10.80;75.20;;;;;;4899958;29;20467;-77
2023/01/13 09:09:36;;;;;;;7.85;1.70;;;10.90;75.10;;;;;;4899961;29;20112;-77
2023/01/13 09:14:46;;;;;;;14.77;2.80;;;11.00;74.60;;;;;;4894043;29;20062;-77
2023/01/13 09:17:13;;;;;;;12.63;2.83;;;11.00;74.50;;;;;;4899823;29;20537;-77
2023/01/13 09:19:38;;;;;;;14.02;2.50;;;11.00;74.60;;;;;;4896235;29;20492;-75
2023/01/13 09:22:04;;;;;;;9.15;2.53;;;11.00;74.30;;;;;;4881308;29;20076;-74
2023/01/13 09:24:30;;;;;;;8.20;2.55;;;11.10;74.30;;;;;;4900037;29;20029;-75
2023/01/13 09:26:56;;;;;;;8.18;2.50;;;11.10;74.00;;;;;;4883408;29;20116;-75
2023/01/13 09:29:22;;;;;;;7.78;2.03;;;11.20;74.20;;;;;;4887995;29;20045;-75
2023/01/13 09:31:47;;;;;;;6.30;2.10;;;11.20;73.70;;;;;;4878395;29;20095;-74
2023/01/13 09:37:02;;;;;;;12.02;2.47;;;11.80;72.80;;;;;;4895220;29;20035;-75
2023/01/13 09:39:28;;;;;;;8.88;2.10;;;11.90;71.70;;;;;;4881589;29;20399;-74
2023/01/13 09:44:47;;;;;;;8.43;2.50;;;11.80;71.50;;;;;;4899642;29;20040;-75
2023/01/13 09:47:26;;;;;;;10.25;2.08;;;11.70;71.80;;;;;;4899772;29;20104;-75
2023/01/13 09:49:58;;;;;;;8.65;2.53;;;11.30;72.00;;;;;;4888830;29;20029;-75
2023/01/13 09:52:26;;;;;;;9.35;2.35;;;11.20;72.80;;;;;;4895796;29;20032;-74
2023/01/13 09:55:10;;;;;;;10.23;2.22;;;11.20;73.30;;;;;;4895578;29;20037;-77
2023/01/13 09:57:38;;;;;;;8.68;2.35;;;11.20;73.50;;;;;;4882969;29;20075;-75
2023/01/13 10:00:34;;;;;;;5.68;2.10;;;11.20;73.40;;;;;;4897721;29;20053;-77
2023/01/13 10:03:18;;;;;;;15.90;3.08;;;11.20;73.90;;;;;;4899310;29;20043;-74
2023/01/13 10:06:05;;;;;;;13.70;2.75;;;11.30;73.50;;;;;;4880721;29;20025;-74
2023/01/13 10:08:36;;;;;;;8.98;2.20;;;11.40;73.60;;;;;;4888651;29;20096;-75
2023/01/13 10:14:11;;;;;;;7.88;3.00;;;11.60;73.30;;;;;;4900032;29;20057;-74
2023/01/13 10:16:47;;;;;;;14.63;3.35;;;11.70;73.30;;;;;;4902904;29;20036;-75
2023/01/13 10:19:28;;;;;;;6.40;2.28;;;11.70;73.00;;;;;;4887113;29;20093;-75
2023/01/13 10:22:17;;;;;;;10.70;2.20;;;11.60;73.10;;;;;;4891355;29;20050;-75
2023/01/13 10:25:07;;;;;;;9.38;2.90;;;11.70;73.40;;;;;;4893753;29;20032;-77
2023/01/13 10:27:34;;;;;;;9.63;2.38;;;11.70;73.40;;;;;;4884545;29;20035;-77
2023/01/13 10:30:15;;;;;;;7.03;2.63;;;11.70;73.00;;;;;;4897631;29;20039;-76
2023/01/13 10:32:45;;;;;;;11.43;1.83;;;11.70;73.00;;;;;;4897428;29;20492;-77
2023/01/13 10:35:11;;;;;;;8.20;2.78;;;11.70;73.10;;;;;;4902156;29;20020;-77
2023/01/13 10:37:36;;;;;;;13.90;2.47;;;11.70;73.20;;;;;;4902050;29;20506;-77
2023/01/13 10:40:05;;;;;;;8.45;2.15;;;11.70;73.40;;;;;;4899387;29;20025;-77
2023/01/13 10:42:31;;;;;;;11.30;2.42;;;11.80;73.20;;;;;;4900872;29;20041;-77
2023/01/13 10:44:59;;;;;;;18.42;2.67;;;11.80;73.20;;;;;;4902099;29;20088;-77
2023/01/13 10:47:31;;;;;;;14.40;2.30;;;11.80;72.60;;;;;;4902063;29;20033;-77
2023/01/13 10:50:12;;;;;;;13.57;2.67;;;11.80;72.70;;;;;;4901319;29;20021;-77
2023/01/13 10:52:53;;;;;;;15.30;2.50;;;11.80;72.10;;;;;;4888980;29;20036;-76
2023/01/13 10:55:32;;;;;;;8.25;1.73;;;11.90;71.90;;;;;;4901903;29;20039;-76
2023/01/13 10:58:17;;;;;;;13.77;2.75;;;11.90;71.60;;;;;;4898405;29;20036;-76
2023/01/13 11:00:44;;;;;;;13.70;3.00;;;12.00;71.60;;;;;;4895075;29;20033;-77
2023/01/13 11:03:17;;;;;;;9.43;1.92;;;12.00;71.70;;;;;;4897195;29;20035;-77
2023/01/13 11:06:03;;;;;;;11.00;2.17;;;12.00;70.70;;;;;;4902184;29;20064;-76
2023/01/13 11:08:40;;;;;;;18.55;2.83;;;12.00;71.10;;;;;;4877932;29;20097;-76
2023/01/13 11:11:41;;;;;;;10.55;2.20;;;12.10;71.10;;;;;;4897793;29;20141;-76
2023/01/13 11:14:38;;;;;;;8.75;1.85;;;12.10;70.80;;;;;;4896007;29;20061;-76
2023/01/13 11:17:18;;;;;;;8.07;1.85;;;12.10;71.30;;;;;;4885670;29;20057;-76
2023/01/13 11:19:53;;;;;;;7.38;2.20;;;12.10;71.30;;;;;;4900153;29;20037;-76
2023/01/13 11:22:28;;;;;;;11.70;2.30;;;12.20;70.50;;;;;;4884889;29;20035;-76
2023/01/13 11:25:00;;;;;;;6.05;1.98;;;12.20;70.80;;;;;;4901499;29;20116;-76
2023/01/13 11:27:57;;;;;;;9.63;2.10;;;12.30;70.60;;;;;;4893979;29;20032;-76
2023/01/13 11:30:41;;;;;;;12.50;2.55;;;12.20;70.90;;;;;;4901370;29;20041;-80
2023/01/13 11:33:13;;;;;;;12.32;2.45;;;12.30;70.20;;;;;;4883381;29;20048;-77
2023/01/13 11:36:01;;;;;;;16.45;2.30;;;12.30;70.10;;;;;;4898459;29;20480;-77
2023/01/13 11:38:32;;;;;;;9.10;2.40;;;12.30;70.20;;;;;;4903478;29;20033;-77
2023/01/13 11:41:22;;;;;;;10.60;2.17;;;12.30;69.90;;;;;;4900615;29;20739;-79
2023/01/13 11:43:59;;;;;;;13.35;2.72;;;12.40;70.20;;;;;;4875868;29;20036;-79
2023/01/13 11:46:26;;;;;;;13.50;2.75;;;12.40;70.10;;;;;;4901323;29;20466;-79
2023/01/13 11:48:55;;;;;;;10.20;2.35;;;12.40;69.90;;;;;;4898841;29;20044;-78
2023/01/13 11:51:35;;;;;;;11.02;2.50;;;12.40;69.50;;;;;;4882411;29;20045;-78
2023/01/13 11:54:25;;;;;;;10.60;2.67;;;12.50;69.20;;;;;;4887256;29;20040;-79
2023/01/13 11:57:06;;;;;;;14.43;2.75;;;12.50;69.60;;;;;;4900975;29;20500;-79
2023/01/13 11:59:44;;;;;;;10.85;1.98;;;12.60;69.70;;;;;;4900911;29;20036;-82
2023/01/13 12:02:30;;;;;;;11.80;2.75;;;12.60;69.60;;;;;;4894910;29;20033;-77
2023/01/13 12:05:18;;;;;;;13.68;1.95;;;12.60;69.50;;;;;;4897704;29;20048;-77
2023/01/13 12:08:02;;;;;;;12.40;2.20;;;12.50;68.60;;;;;;4896258;29;20031;-77
2023/01/13 12:10:40;;;;;;;11.13;2.13;;;12.60;69.30;;;;;;4895964;29;20064;-77
2023/01/13 12:13:29;;;;;;;8.43;1.80;;;12.60;69.10;;;;;;4896819;29;20085;-77
2023/01/13 12:16:14;;;;;;;12.38;2.53;;;12.60;69.20;;;;;;4880205;29;20036;-77
2023/01/13 12:19:11;;;;;;;10.88;2.17;;;12.60;69.20;;;;;;4879822;29;20027;-77
2023/01/13 12:21:45;;;;;;;14.32;2.33;;;12.60;69.10;;;;;;4898837;29;20028;-77
2023/01/13 12:24:31;;;;;;;11.07;2.72;;;12.60;69.30;;;;;;4880244;29;20036;-77
2023/01/13 12:27:04;;;;;;;12.65;2.22;;;12.70;68.90;;;;;;4878778;29;20199;-77
2023/01/13 12:29:34;;;;;;;14.35;2.60;;;12.80;68.80;;;;;;4899338;29;20081;-77
2023/01/13 12:32:04;;;;;;;11.00;2.17;;;12.70;69.10;;;;;;4900221;29;20056;-77
2023/01/13 12:34:36;;;;;;;10.95;2.80;;;12.70;68.80;;;;;;4899346;29;20296;-78
2023/01/13 12:37:25;;;;;;;12.15;2.85;;;12.80;69.20;;;;;;4897256;29;20047;-77
2023/01/13 12:39:58;;;;;;;10.40;2.72;;;12.70;69.60;;;;;;4880663;29;20024;-77
2023/01/13 12:45:31;;;;;;;15.10;2.70;;;12.80;68.70;;;;;;4900582;29;20158;-77
2023/01/13 12:47:58;;;;;;;8.95;2.55;;;12.90;68.10;;;;;;4879320;29;20033;-77
2023/01/13 12:50:23;;;;;;;10.77;2.38;;;13.10;68.60;;;;;;4897516;29;20020;-77
2023/01/13 12:53:19;;;;;;;16.40;3.08;;;13.20;67.70;;;;;;4897849;29;20040;-78
2023/01/13 12:55:50;;;;;;;9.23;2.33;;;13.10;68.30;;;;;;4879573;29;20637;-77
2023/01/13 12:58:17;;;;;;;11.52;2.50;;;13.00;68.10;;;;;;4899210;29;20116;-77
2023/01/13 13:00:44;;;;;;;11.35;2.35;;;13.00;67.20;;;;;;4899123;29;20043;-77
2023/01/13 13:03:39;;;;;;;11.95;2.17;;;13.00;67.50;;;;;;4882544;29;20096;-77
2023/01/13 13:06:07;;;;;;;13.52;3.40;;;12.90;66.50;;;;;;4884256;29;20055;-77
2023/01/13 13:09:00;;;;;;;9.27;2.28;;;12.80;67.20;;;;;;4880939;29;20033;-77
2023/01/13 13:14:40;;;;;;;15.25;2.80;;;12.90;67.80;;;;;;4894725;29;20410;-77
2023/01/13 13:17:28;;;;;;;8.52;2.40;;;12.90;67.50;;;;;;4894928;29;20033;-77
2023/01/13 13:19:55;;;;;;;10.20;2.28;;;13.00;67.60;;;;;;4898433;29;20033;-77
2023/01/13 13:22:27;;;;;;;11.32;2.55;;;13.00;67.20;;;;;;4898615;29;20550;-77
2023/01/13 13:24:58;;;;;;;11.70;2.20;;;13.10;66.80;;;;;;4896936;29;20107;-77
2023/01/13 13:27:36;;;;;;;11.65;2.20;;;13.00;66.40;;;;;;4898533;29;20036;-77
2023/01/13 13:30:41;;;;;;;14.52;2.67;;;13.10;66.60;;;;;;4899764;29;20483;-77
2023/01/13 13:33:28;;;;;;;11.20;2.03;;;13.10;66.20;;;;;;4869106;29;20053;-77
2023/01/13 13:36:11;;;;;;;12.95;3.53;;;13.10;66.40;;;;;;4888363;29;20467;-77
2023/01/13 13:47:37;;;;;;;9.48;1.83;;;12.90;66.10;;;;;;4882459;29;20023;-77
2023/01/13 13:50:17;;;;;;;12.57;2.53;;;12.80;65.90;;;;;;4884503;29;20064;-77
2023/01/13 13:52:57;;;;;;;9.15;2.38;;;12.80;65.90;;;;;;4872648;29;20044;-77
2023/01/13 13:55:27;;;;;;;12.32;2.38;;;12.80;66.10;;;;;;4900189;29;20517;-77
2023/01/13 13:57:56;;;;;;;15.50;3.00;;;12.80;66.20;;;;;;4899695;29;20033;-77
2023/01/13 14:00:32;;;;;;;13.30;2.47;;;12.90;66.70;;;;;;4879248;29;20097;-77
2023/01/13 14:03:00;;;;;;;15.30;2.40;;;12.90;66.20;;;;;;4886625;29;20029;-77
2023/01/13 14:05:30;;;;;;;10.23;2.67;;;13.00;66.70;;;;;;4897393;29;20039;-77
2023/01/13 14:08:13;;;;;;;13.27;2.60;;;13.00;66.60;;;;;;4899010;29;20119;-77
2023/01/13 14:10:40;;;;;;;12.23;2.28;;;13.00;65.60;;;;;;4891251;29;20464;-77
2023/01/13 14:13:21;;;;;;;9.63;2.50;;;13.10;65.90;;;;;;4903146;29;20033;-77
2023/01/13 14:15:55;;;;;;;11.38;2.45;;;13.20;65.40;;;;;;4902591;29;20103;-77
2023/01/13 14:18:21;;;;;;;11.95;2.30;;;13.20;65.30;;;;;;4895863;29;20021;-76
2023/01/13 14:20:57;;;;;;;15.73;3.03;;;13.20;65.20;;;;;;4899228;29;20047;-77
2023/01/13 14:23:28;;;;;;;14.88;2.58;;;13.20;65.30;;;;;;4882744;29;20029;-77
2023/01/13 14:25:55;;;;;;;13.38;2.70;;;13.20;64.90;;;;;;4879791;29;20029;-77
2023/01/13 14:28:36;;;;;;;7.50;2.00;;;13.20;64.60;;;;;;4898224;29;20108;-77
2023/01/13 14:31:03;;;;;;;12.80;2.95;;;13.20;64.60;;;;;;4901133;29;20063;-77
2023/01/13 14:33:32;;;;;;;12.02;2.47;;;13.30;65.70;;;;;;4892040;29;20523;-76
2023/01/13 14:36:04;;;;;;;10.05;2.72;;;13.30;65.10;;;;;;4900273;29;20133;-77
2023/01/13 14:38:30;;;;;;;19.42;3.55;;;13.30;65.50;;;;;;4894383;29;20024;-77
2023/01/13 14:40:56;;;;;;;10.95;2.20;;;13.20;64.90;;;;;;4894137;29;20056;-77
2023/01/13 14:43:24;;;;;;;11.35;2.28;;;13.10;65.20;;;;;;4899058;29;20076;-77
2023/01/13 14:45:59;;;;;;;13.90;3.08;;;13.00;65.80;;;;;;4888817;29;20024;-76
2023/01/13 14:48:36;;;;;;;8.43;2.17;;;13.10;66.30;;;;;;4896669;29;20025;-76
2023/01/13 14:51:10;;;;;;;10.70;2.35;;;13.00;66.20;;;;;;4898665;29;20388;-77
2023/01/13 14:53:44;;;;;;;9.05;2.58;;;13.00;66.60;;;;;;4874055;29;20067;-76
2023/01/13 14:56:57;;;;;;;10.48;2.38;;;13.00;67.10;;;;;;4897864;29;20143;-76
2023/01/13 14:59:39;;;;;;;9.00;2.00;;;13.00;67.40;;;;;;4879350;29;20115;-77
2023/01/13 15:02:23;;;;;;;14.25;2.60;;;13.00;67.60;;;;;;4896366;29;20040;-77
2023/01/13 15:04:52;;;;;;;10.13;2.03;;;13.10;67.80;;;;;;4901304;29;20020;-76
2023/01/13 15:07:25;;;;;;;8.70;2.17;;;13.10;67.70;;;;;;4882819;29;20040;-76
2023/01/13 15:09:57;;;;;;;11.13;2.53;;;13.10;67.90;;;;;;4898167;29;20019;-76
2023/01/13 15:12:42;;;;;;;11.02;2.45;;;13.10;67.70;;;;;;4901369;29;20048;-76
2023/01/13 15:15:34;;;;;;;14.77;2.70;;;13.10;67.80;;;;;;4899911;29;20048;-75
2023/01/13 15:18:04;;;;;;;17.40;3.20;;;13.10;67.60;;;;;;4896675;29;20040;-76
2023/01/13 15:20:30;;;;;;;12.13;2.53;;;13.10;67.80;;;;;;4893755;29;20400;-77
2023/01/13 15:22:59;;;;;;;18.75;2.95;;;13.20;67.70;;;;;;4895516;29;20048;-76
2023/01/13 15:25:34;;;;;;;14.35;3.20;;;13.20;67.90;;;;;;4901402;29;20035;-77
2023/01/13 15:28:00;;;;;;;12.57;2.28;;;13.10;67.60;;;;;;4901387;29;20119;-76
2023/01/13 15:30:27;;;;;;;9.10;2.50;;;13.10;67.80;;;;;;4892107;29;20073;-76
2023/01/13 15:32:54;;;;;;;13.35;3.17;;;13.00;67.70;;;;;;4888008;29;20050;-76
2023/01/13 15:35:21;;;;;;;8.43;1.80;;;13.10;67.90;;;;;;4882548;29;20030;-77
2023/01/13 15:37:48;;;;;;;6.50;1.50;;;13.00;68.10;;;;;;4883495;29;20050;-77
2023/01/13 15:40:19;;;;;;;9.60;2.35;;;12.90;68.10;;;;;;4898578;29;20028;-76
2023/01/13 15:48:20;;;;;;;10.40;2.60;;;12.90;69.00;;;;;;4900993;29;20035;-76
2023/01/13 15:50:46;;;;;;;5.35;2.25;;;12.90;69.40;;;;;;4895534;29;20084;-76
2023/01/13 15:53:13;;;;;;;11.27;2.88;;;12.90;69.30;;;;;;4882096;29;20051;-76
2023/01/13 15:55:40;;;;;;;9.65;2.03;;;12.90;69.30;;;;;;4903991;29;20030;-77
2023/01/13 15:58:06;;;;;;;10.25;2.80;;;12.90;69.30;;;;;;4908325;29;20032;-76
2023/01/13 16:00:32;;;;;;;12.73;2.58;;;12.80;69.40;;;;;;4905626;29;20037;-77
2023/01/13 16:02:58;;;;;;;9.93;2.20;;;12.80;69.50;;;;;;4907320;29;20032;-76
2023/01/13 16:05:24;;;;;;;9.52;2.65;;;12.80;69.80;;;;;;4908538;29;20027;-76
2023/01/13 16:07:51;;;;;;;9.25;2.15;;;12.80;69.90;;;;;;4902175;29;20056;-77
2023/01/13 16:10:25;;;;;;;10.60;2.17;;;12.70;70.00;;;;;;4907071;29;20482;-76
2023/01/13 16:12:52;;;;;;;10.18;3.00;;;12.70;70.20;;;;;;4900226;29;20115;-76
2023/01/13 16:15:21;;;;;;;6.95;2.17;;;12.70;70.30;;;;;;4897524;29;20036;-76
2023/01/13 16:17:51;;;;;;;11.82;2.63;;;12.60;70.30;;;;;;4895626;29;20047;-76
2023/01/13 16:20:17;;;;;;;7.47;2.35;;;12.60;70.50;;;;;;4897864;29;20084;-76
2023/01/13 16:22:44;;;;;;;12.18;2.55;;;12.60;70.70;;;;;;4897979;29;20055;-76
2023/01/13 16:25:18;;;;;;;11.90;2.60;;;12.60;70.60;;;;;;4897329;29;20017;-76
2023/01/13 16:27:44;;;;;;;11.60;2.45;;;12.60;70.70;;;;;;4898069;29;20091;-76
2023/01/13 16:30:26;;;;;;;16.15;2.67;;;12.60;70.90;;;;;;4897614;29;20028;-77
2023/01/13 16:32:53;;;;;;;7.20;2.22;;;12.50;71.40;;;;;;4899553;29;20040;-76
2023/01/13 16:35:20;;;;;;;7.00;1.98;;;12.50;71.40;;;;;;4893390;29;20056;-76
2023/01/13 16:37:47;;;;;;;7.38;2.17;;;12.60;71.60;;;;;;4900271;29;20495;-76
2023/01/13 16:40:32;;;;;;;6.78;2.10;;;12.50;71.70;;;;;;4892092;29;20513;-76
2023/01/13 16:42:59;;;;;;;9.73;2.00;;;12.50;71.80;;;;;;4895940;29;20028;-76
2023/01/13 16:45:25;;;;;;;11.40;2.65;;;12.50;72.00;;;;;;4896178;29;20100;-76
2023/01/13 16:47:51;;;;;;;8.45;1.88;;;12.50;72.30;;;;;;4899720;29;20104;-76
2023/01/13 16:50:26;;;;;;;12.73;2.20;;;12.50;72.50;;;;;;4893547;29;20025;-76
2023/01/13 16:52:51;;;;;;;9.00;2.25;;;12.50;72.70;;;;;;4899635;29;20115;-76
2023/01/13 16:55:17;;;;;;;5.72;1.98;;;12.50;72.90;;;;;;4897475;29;20061;-76
2023/01/13 16:57:43;;;;;;;10.55;2.38;;;12.50;73.00;;;;;;4895638;29;20028;-76
2023/01/13 17:00:11;;;;;;;8.32;1.98;;;12.40;73.30;;;;;;4898545;29;20076;-76
2023/01/13 17:02:37;;;;;;;4.80;1.90;;;12.40;73.50;;;;;;4895071;29;20061;-76
2023/01/13 17:05:04;;;;;;;10.40;2.80;;;12.40;73.70;;;;;;4893264;29;20041;-76
2023/01/13 17:07:29;;;;;;;9.55;2.05;;;12.40;73.80;;;;;;4899170;29;20021;-76
2023/01/13 17:09:55;;;;;;;11.00;2.33;;;12.40;73.90;;;;;;4896720;29;20040;-76
2023/01/13 17:12:21;;;;;;;8.75;2.25;;;12.40;74.10;;;;;;4900672;29;20032;-76
2023/01/13 17:14:46;;;;;;;7.95;1.40;;;12.40;74.20;;;;;;4897634;29;20047;-76
2023/01/13 17:17:24;;;;;;;5.38;2.10;;;12.30;74.60;;;;;;4899317;29;20072;-76
2023/01/13 17:19:50;;;;;;;7.45;1.58;;;12.40;74.70;;;;;;4890130;29;20029;-76
2023/01/13 17:22:16;;;;;;;6.72;1.83;;;12.30;74.90;;;;;;4897475;29;20069;-76
2023/01/13 17:24:42;;;;;;;6.88;1.73;;;12.30;75.30;;;;;;4900817;29;20036;-76
2023/01/13 17:27:08;;;;;;;8.60;2.47;;;12.30;75.60;;;;;;4903218;29;20024;-76
2023/01/13 17:29:34;;;;;;;8.77;2.15;;;12.30;75.70;;;;;;4887456;29;20088;-76
2023/01/13 17:32:00;;;;;;;11.45;2.78;;;12.40;75.90;;;;;;4886286;29;20468;-76
2023/01/13 17:34:26;;;;;;;10.02;2.20;;;12.30;76.00;;;;;;4903318;29;20043;-76
2023/01/13 17:36:52;;;;;;;9.90;2.00;;;12.30;76.20;;;;;;4901878;29;20104;-76
2023/01/13 17:39:23;;;;;;;5.75;2.17;;;12.30;76.40;;;;;;4903251;29;20025;-76
2023/01/13 17:41:50;;;;;;;5.38;1.67;;;12.30;76.40;;;;;;4904081;29;20028;-78
2023/01/13 17:44:17;;;;;;;7.50;1.60;;;12.30;76.70;;;;;;4885771;29;20025;-77
2023/01/13 17:46:55;;;;;;;10.35;4.00;;;12.30;76.80;;;;;;4884392;29;20081;-77
2023/01/13 17:49:21;;;;;;;4.53;2.40;;;12.30;76.90;;;;;;4884529;29;20441;-77
2023/01/13 17:51:49;;;;;;;10.07;2.28;;;12.30;77.00;;;;;;4883958;29;20064;-77
2023/01/13 17:54:15;;;;;;;9.57;2.20;;;12.30;77.20;;;;;;4891526;29;20123;-76
2023/01/13 17:56:41;;;;;;;6.15;2.53;;;12.30;77.40;;;;;;4899645;29;20073;-77
2023/01/13 17:59:08;;;;;;;12.60;3.80;;;12.30;77.40;;;;;;4883327;29;20047;-76
2023/01/13 18:01:33;;;;;;;12.15;4.95;;;12.30;77.50;;;;;;4883504;29;20416;-76
2023/01/13 18:04:00;;;;;;;16.50;4.60;;;12.20;77.70;;;;;;4885792;29;20037;-87
2023/01/13 18:06:25;;;;;;;9.48;4.30;;;12.20;77.60;;;;;;4885935;29;20033;-83
2023/01/13 18:08:52;;;;;;;15.10;4.13;;;12.20;77.90;;;;;;4867644;29;20036;-86
2023/01/13 18:11:21;;;;;;;9.23;2.55;;;12.10;78.20;;;;;;4893226;29;20116;-86
2023/01/13 18:13:59;;;;;;;6.78;2.85;;;12.00;78.50;;;;;;4901791;29;20469;-86
2023/01/13 18:16:26;;;;;;;5.15;2.22;;;12.00;79.00;;;;;;4904877;29;20057;-87
2023/01/13 18:18:52;;;;;;;7.95;3.30;;;12.00;79.10;;;;;;4897188;29;20060;-86
2023/01/13 18:27:21;;;;;;;6.50;2.95;;;12.00;79.60;;;;;;4899627;29;20047;-86
2023/01/13 18:29:49;;;;;;;10.77;2.60;;;12.00;79.70;;;;;;4896346;29;20591;-82
2023/01/13 18:32:14;;;;;;;10.15;3.10;;;12.00;79.80;;;;;;4892038;29;20057;-88
2023/01/13 18:34:40;;;;;;;9.57;2.28;;;12.00;80.10;;;;;;4897607;29;20031;-82
2023/01/13 18:37:08;;;;;;;6.85;2.15;;;12.00;80.30;;;;;;4895457;29;20029;-86
2023/01/13 18:39:36;;;;;;;7.38;2.92;;;12.00;80.70;;;;;;4880565;29;20407;-84
2023/01/13 18:44:46;;;;;;;9.23;2.20;;;11.90;81.50;;;;;;4902928;29;20035;-88
2023/01/13 18:47:12;;;;;;;8.50;3.15;;;11.90;81.70;;;;;;4899116;29;20029;-88
2023/01/13 18:49:38;;;;;;;9.88;2.42;;;12.00;81.50;;;;;;4902834;29;20061;-92
2023/01/13 18:52:03;;;;;;;9.15;3.20;;;12.00;81.40;;;;;;4903184;29;20076;-88
2023/01/13 18:54:29;;;;;;;11.90;3.03;;;12.10;81.30;;;;;;4885178;29;20114;-84
2023/01/13 18:56:56;;;;;;;9.52;3.45;;;12.00;81.50;;;;;;4905086;29;20037;-87
2023/01/13 18:59:23;;;;;;;11.07;4.20;;;12.00;81.50;;;;;;4892938;29;20527;-85
2023/01/13 19:01:48;;;;;;;13.88;4.38;;;12.00;81.50;;;;;;4903864;29;20017;-83
2023/01/13 19:04:16;;;;;;;17.55;5.03;;;12.00;81.60;;;;;;4890651;29;20107;-82
2023/01/13 19:06:51;;;;;;;15.85;3.55;;;12.00;81.60;;;;;;4904435;29;20089;-84
2023/01/13 19:09:21;;;;;;;12.82;4.55;;;11.90;82.20;;;;;;4902422;29;20028;-85
2023/01/13 19:11:47;;;;;;;16.10;3.67;;;11.90;82.40;;;;;;4881100;29;20088;-85
2023/01/13 19:14:32;;;;;;;11.60;3.75;;;12.00;82.50;;;;;;4888969;29;20036;-87
2023/01/13 19:17:08;;;;;;;9.38;3.35;;;11.90;82.70;;;;;;4902215;29;20044;-81
2023/01/13 19:19:42;;;;;;;7.97;2.95;;;11.90;82.90;;;;;;4899157;29;20063;-89
2023/01/13 19:22:08;;;;;;;8.13;3.15;;;11.90;83.20;;;;;;4886138;29;20039;-91
2023/01/13 19:24:34;;;;;;;9.02;3.95;;;11.90;83.20;;;;;;4899082;29;20406;-82
2023/01/13 19:27:00;;;;;;;11.88;4.28;;;11.90;83.30;;;;;;4896312;29;20248;-81
2023/01/13 19:29:25;;;;;;;8.70;5.10;;;11.80;83.50;;;;;;4885198;29;20029;-83